createdAt,value
2019-06-27T00:01:48.899Z,6.90
2019-06-27T00:04:16.950Z,8.23
2019-06-27T00:06:45.015Z,7.93
2019-06-27T00:09:13.042Z,7.73
2019-06-27T00:11:41.980Z,7.40
2019-06-27T00:14:10.514Z,7.30
2019-06-27T00:16:38.613Z,7.10
2019-06-27T00:19:06.708Z,7.43
2019-06-27T00:21:34.766Z,6.87
2019-06-27T00:24:02.812Z,7.50
2019-06-27T00:26:31.857Z,7.20
2019-06-27T00:28:59.907Z,6.77
2019-06-27T00:31:27.943Z,6.70
2019-06-27T00:33:55.982Z,7.17
2019-06-27T00:36:24.065Z,7.10
2019-06-27T00:38:52.103Z,7.17
2019-06-27T00:41:20.147Z,6.63
2019-06-27T00:43:48.213Z,7.40
2019-06-27T00:46:16.271Z,6.90
2019-06-27T00:48:44.308Z,7.27
2019-06-27T00:51:12.459Z,6.93
2019-06-27T00:53:40.499Z,7.53
2019-06-27T00:56:08.534Z,7.57
2019-06-27T00:58:36.698Z,7.53
2019-06-27T01:01:04.817Z,6.67
2019-06-27T01:03:32.860Z,7.23
2019-06-27T01:06:00.920Z,7.80
2019-06-27T01:08:30.600Z,6.80
2019-06-27T01:10:58.650Z,7.07
2019-06-27T01:13:27.392Z,7.00
2019-06-27T01:15:55.426Z,6.97
2019-06-27T01:18:23.746Z,7.00
2019-06-27T01:20:53.992Z,6.43
2019-06-27T01:23:22.194Z,7.07
2019-06-27T01:25:50.249Z,7.03
2019-06-27T01:28:18.315Z,6.40
2019-06-27T01:30:46.354Z,6.90
2019-06-27T01:33:14.394Z,6.83
2019-06-27T01:35:42.462Z,7.03
2019-06-27T01:38:10.509Z,6.80
2019-06-27T01:40:38.555Z,6.00
2019-06-27T01:43:07.414Z,6.90
2019-06-27T01:45:45.806Z,6.90
2019-06-27T01:48:13.903Z,6.97
2019-06-27T01:50:41.948Z,6.63
2019-06-27T01:53:09.990Z,6.70
2019-06-27T01:55:38.050Z,6.50
2019-06-27T01:58:06.102Z,6.27
2019-06-27T02:00:34.151Z,6.60
2019-06-27T02:03:02.238Z,6.93
2019-06-27T02:05:30.278Z,6.40
2019-06-27T02:07:58.327Z,6.33
2019-06-27T02:10:26.539Z,6.13
2019-06-27T02:12:54.651Z,6.67
2019-06-27T02:15:24.156Z,6.53
2019-06-27T02:17:52.282Z,6.13
2019-06-27T02:20:20.750Z,6.43
2019-06-27T02:22:48.795Z,7.07
2019-06-27T02:25:17.142Z,6.00
2019-06-27T02:27:45.184Z,6.60
2019-06-27T02:30:13.501Z,6.10
2019-06-27T02:32:41.556Z,6.80
2019-06-27T02:35:09.774Z,6.50
2019-06-27T02:37:37.821Z,6.50
2019-06-27T02:40:06.202Z,6.67
2019-06-27T02:42:34.242Z,6.50
2019-06-27T02:45:02.343Z,6.40
2019-06-27T02:47:30.487Z,6.23
2019-06-27T02:50:17.867Z,6.37
2019-06-27T02:52:45.938Z,5.83
2019-06-27T02:55:13.997Z,6.67
2019-06-27T02:57:42.047Z,5.70
2019-06-27T03:00:30.927Z,6.10
2019-06-27T03:02:58.982Z,5.47
2019-06-27T03:05:27.023Z,6.30
2019-06-27T03:07:55.102Z,5.67
2019-06-27T03:10:23.156Z,5.43
2019-06-27T03:12:51.200Z,5.60
2019-06-27T03:15:19.546Z,5.23
2019-06-27T03:17:49.607Z,5.37
2019-06-27T03:20:17.747Z,5.47
2019-06-27T03:22:48.915Z,5.50
2019-06-27T03:25:17.168Z,5.73
2019-06-27T03:27:45.188Z,5.77
2019-06-27T03:30:13.283Z,5.20
2019-06-27T03:32:41.383Z,5.60
2019-06-27T03:35:09.430Z,5.83
2019-06-27T03:37:37.514Z,6.63
2019-06-27T03:40:06.285Z,5.63
2019-06-27T03:42:34.359Z,5.27
2019-06-27T03:45:02.610Z,6.13
2019-06-27T03:47:30.642Z,5.87
2019-06-27T03:49:58.694Z,5.07
2019-06-27T03:52:27.231Z,5.93
2019-06-27T03:54:55.274Z,5.20
2019-06-27T03:57:23.335Z,6.20
2019-06-27T03:59:51.404Z,6.00
2019-06-27T04:02:19.463Z,5.20
2019-06-27T04:04:47.515Z,5.47
2019-06-27T04:07:15.601Z,5.23
2019-06-27T04:09:43.645Z,5.73
2019-06-27T04:12:12.629Z,5.77
2019-06-27T04:14:40.724Z,11.23
2019-06-27T04:17:08.766Z,6.60
2019-06-27T04:19:38.056Z,5.70
2019-06-27T04:22:06.181Z,5.90
2019-06-27T04:24:34.323Z,5.73
2019-06-27T04:27:02.371Z,5.30
2019-06-27T04:29:34.303Z,5.20
2019-06-27T04:32:01.424Z,4.83
2019-06-27T04:34:29.551Z,5.70
2019-06-27T04:36:57.625Z,4.80
2019-06-27T04:39:25.671Z,5.27
2019-06-27T04:41:53.774Z,5.17
2019-06-27T04:44:21.837Z,5.80
2019-06-27T04:46:49.882Z,4.80
2019-06-27T04:49:17.922Z,5.27
2019-06-27T04:51:45.998Z,5.67
2019-06-27T04:54:15.960Z,5.73
2019-06-27T04:56:44.208Z,5.87
2019-06-27T04:59:12.283Z,5.40
2019-06-27T05:01:40.330Z,5.00
2019-06-27T05:04:08.365Z,5.63
2019-06-27T05:06:36.538Z,4.47
2019-06-27T05:09:04.730Z,5.20
2019-06-27T05:11:32.770Z,4.90
2019-06-27T05:14:00.914Z,4.57
2019-06-27T05:16:28.960Z,4.30
2019-06-27T05:18:57.022Z,4.67
2019-06-27T05:21:26.712Z,7.07
2019-06-27T05:23:54.754Z,4.93
2019-06-27T05:26:23.034Z,4.30
2019-06-27T05:28:51.094Z,4.40
2019-06-27T05:31:19.148Z,3.80
2019-06-27T05:33:47.182Z,3.33
2019-06-27T05:36:15.263Z,4.33
2019-06-27T05:38:43.298Z,3.63
2019-06-27T05:41:11.361Z,4.37
2019-06-27T05:43:39.447Z,3.97
2019-06-27T05:46:07.498Z,3.20
2019-06-27T05:48:35.544Z,4.50
2019-06-27T05:51:03.619Z,4.27
2019-06-27T05:53:31.657Z,2.90
2019-06-27T05:55:59.710Z,3.23
2019-06-27T05:58:27.771Z,2.60
2019-06-27T06:00:55.882Z,3.20
2019-06-27T06:03:23.926Z,3.10
2019-06-27T06:05:52.014Z,3.17
2019-06-27T06:08:20.250Z,3.00
2019-06-27T06:10:48.307Z,2.67
2019-06-27T06:13:16.373Z,2.67
2019-06-27T06:15:44.415Z,2.10
2019-06-27T06:18:12.459Z,2.50
2019-06-27T06:20:40.520Z,2.60
2019-06-27T06:23:09.311Z,2.00
2019-06-27T06:25:42.253Z,2.90
2019-06-27T06:28:10.942Z,2.67
2019-06-27T06:30:44.395Z,2.27
2019-06-27T06:33:08.762Z,2.50
2019-06-27T06:35:36.838Z,2.37
2019-06-27T06:38:04.896Z,1.87
2019-06-27T06:40:32.935Z,1.70
2019-06-27T06:43:00.997Z,2.07
2019-06-27T06:45:29.054Z,1.63
2019-06-27T06:47:57.194Z,3.10
2019-06-27T06:50:25.887Z,1.97
2019-06-27T06:52:53.990Z,2.00
2019-06-27T06:55:22.035Z,1.80
2019-06-27T06:57:50.102Z,1.53
2019-06-27T07:00:18.687Z,2.70
2019-06-27T07:02:46.727Z,2.40
2019-06-27T07:05:14.801Z,2.20
2019-06-27T07:07:42.838Z,2.10
2019-06-27T07:10:11.318Z,1.97
2019-06-27T07:12:39.400Z,1.93
2019-06-27T07:15:07.788Z,2.30
2019-06-27T07:17:35.806Z,1.90
2019-06-27T07:20:04.901Z,2.33
2019-06-27T07:22:32.989Z,2.10
2019-06-27T07:25:01.469Z,1.80
2019-06-27T07:27:29.536Z,1.60
2019-06-27T07:29:57.576Z,1.77
2019-06-27T07:32:25.620Z,1.80
2019-06-27T07:34:53.771Z,2.23
2019-06-27T07:37:21.819Z,2.00
2019-06-27T07:39:49.865Z,2.00
2019-06-27T07:42:18.018Z,1.70
2019-06-27T07:44:46.071Z,1.50
2019-06-27T07:47:14.124Z,1.87
2019-06-27T07:49:42.191Z,1.90
2019-06-27T07:52:10.230Z,1.57
2019-06-27T07:54:38.275Z,1.63
2019-06-27T07:57:07.281Z,1.60
2019-06-27T07:59:35.318Z,1.73
2019-06-27T08:02:03.458Z,3.93
2019-06-27T08:04:31.534Z,4.17
2019-06-27T08:06:59.567Z,1.80
2019-06-27T08:09:27.610Z,1.90
2019-06-27T08:11:55.682Z,3.30
2019-06-27T08:14:23.798Z,1.60
2019-06-27T08:16:51.847Z,1.40
2019-06-27T08:19:19.970Z,1.57
2019-06-27T08:21:48.011Z,1.80
2019-06-27T08:24:16.057Z,2.40
2019-06-27T08:26:45.368Z,1.40
2019-06-27T08:29:13.468Z,1.57
2019-06-27T08:31:50.916Z,1.13
2019-06-27T08:34:11.314Z,1.10
2019-06-27T08:36:39.400Z,1.60
2019-06-27T08:39:07.465Z,1.37
2019-06-27T08:41:35.530Z,3.50
2019-06-27T08:44:03.577Z,1.53
2019-06-27T08:46:31.635Z,1.47
2019-06-27T08:48:59.739Z,1.60
2019-06-27T08:51:27.819Z,1.30
2019-06-27T08:53:55.863Z,1.30
2019-06-27T08:56:24.018Z,1.47
2019-06-27T08:58:52.076Z,1.27
2019-06-27T09:01:20.119Z,1.77
2019-06-27T09:03:48.256Z,2.20
2019-06-27T09:06:16.299Z,1.57
2019-06-27T09:08:44.343Z,1.70
2019-06-27T09:11:12.403Z,2.20
2019-06-27T09:13:40.513Z,1.40
2019-06-27T09:16:08.562Z,1.93
2019-06-27T09:18:56.809Z,1.90
2019-06-27T09:21:24.857Z,1.17
2019-06-27T09:23:52.898Z,2.80
2019-06-27T09:26:21.022Z,1.70
2019-06-27T09:28:49.511Z,1.00
2019-06-27T09:31:17.557Z,1.30
2019-06-27T09:33:45.633Z,1.37
2019-06-27T09:36:13.675Z,1.40
2019-06-27T09:38:41.719Z,1.30
2019-06-27T09:41:12.623Z,1.80
2019-06-27T09:43:40.670Z,1.97
2019-06-27T09:46:08.707Z,1.20
2019-06-27T09:48:36.769Z,1.27
2019-06-27T09:51:04.808Z,1.30
2019-06-27T09:53:32.861Z,1.23
2019-06-27T09:56:00.980Z,1.30
2019-06-27T09:58:29.059Z,1.70
2019-06-27T10:00:57.102Z,1.07
2019-06-27T10:03:25.244Z,1.40
2019-06-27T10:05:53.286Z,1.07
2019-06-27T10:08:21.327Z,1.00
2019-06-27T10:10:49.474Z,1.00
2019-06-27T10:13:17.510Z,3.57
2019-06-27T10:15:45.550Z,1.17
2019-06-27T10:18:13.610Z,0.87
2019-06-27T10:20:41.718Z,1.20
2019-06-27T10:23:09.767Z,1.07
2019-06-27T10:25:38.347Z,1.07
2019-06-27T10:28:06.442Z,0.70
2019-06-27T10:30:34.923Z,0.90
2019-06-27T10:33:03.062Z,0.80
2019-06-27T10:35:31.203Z,1.00
2019-06-27T10:37:59.328Z,0.50
2019-06-27T10:40:27.671Z,0.77
2019-06-27T10:42:55.710Z,0.40
2019-06-27T10:45:23.755Z,0.60
2019-06-27T10:47:52.095Z,0.87
2019-06-27T10:50:20.166Z,0.60
2019-06-27T10:52:48.258Z,0.60
2019-06-27T10:55:16.315Z,0.60
2019-06-27T10:57:44.360Z,0.57
2019-06-27T11:00:12.570Z,0.30
2019-06-27T11:02:40.630Z,0.50
2019-06-27T11:05:08.875Z,0.70
2019-06-27T11:07:40.586Z,0.50
2019-06-27T11:10:07.003Z,0.90
2019-06-27T11:12:35.048Z,0.53
2019-06-27T11:15:03.970Z,3.13
2019-06-27T11:17:32.029Z,1.10
2019-06-27T11:20:00.072Z,0.60
2019-06-27T11:22:28.110Z,0.60
2019-06-27T11:24:56.265Z,0.60
2019-06-27T11:27:27.417Z,0.57
2019-06-27T11:29:55.379Z,0.90
2019-06-27T11:32:39.102Z,1.07
2019-06-27T11:35:07.363Z,0.67
2019-06-27T11:37:35.734Z,0.60
2019-06-27T11:40:04.371Z,0.67
2019-06-27T11:42:32.475Z,1.40
2019-06-27T11:45:00.514Z,1.03
2019-06-27T11:47:28.574Z,0.90
2019-06-27T11:49:56.647Z,4.00
2019-06-27T11:52:26.349Z,17.70
2019-06-27T11:54:54.515Z,28.73
2019-06-27T11:57:22.598Z,1.03
2019-06-27T11:59:50.641Z,0.60
2019-06-27T12:02:18.712Z,0.60
2019-06-27T12:04:46.755Z,0.60
2019-06-27T12:07:14.959Z,0.57
2019-06-27T12:09:43.110Z,0.50
2019-06-27T12:12:11.153Z,0.50
2019-06-27T12:14:39.194Z,0.80
2019-06-27T12:17:07.777Z,0.40
2019-06-27T12:19:35.814Z,0.50
2019-06-27T12:22:03.864Z,0.60
2019-06-27T12:24:31.928Z,0.30
2019-06-27T12:27:00.025Z,0.60
2019-06-27T12:29:28.972Z,0.60
2019-06-27T12:31:57.103Z,0.77
2019-06-27T12:34:26.670Z,0.63
2019-06-27T12:36:54.714Z,0.50
2019-06-27T12:39:22.830Z,0.50
2019-06-27T12:41:50.876Z,0.70
2019-06-27T12:44:19.020Z,7.03
2019-06-27T12:46:47.076Z,1.77
2019-06-27T12:49:15.114Z,0.57
2019-06-27T12:51:43.202Z,0.60
2019-06-27T12:54:11.292Z,0.60
2019-06-27T12:56:39.338Z,0.80
2019-06-27T12:59:07.430Z,0.87
2019-06-27T13:01:35.506Z,0.77
2019-06-27T13:04:03.597Z,0.60
2019-06-27T13:06:31.736Z,0.80
2019-06-27T13:08:59.803Z,1.23
2019-06-27T13:11:27.856Z,0.80
2019-06-27T13:13:56.051Z,1.20
2019-06-27T13:16:24.155Z,0.77
2019-06-27T13:18:52.188Z,1.50
2019-06-27T13:21:20.239Z,0.80
2019-06-27T13:23:49.104Z,0.60
2019-06-27T13:26:17.231Z,0.73
2019-06-27T13:28:45.267Z,0.70
2019-06-27T13:31:13.323Z,1.97
2019-06-27T13:33:41.371Z,1.57
2019-06-27T13:36:10.251Z,0.70
2019-06-27T13:38:38.540Z,0.80
2019-06-27T13:41:06.589Z,0.90
2019-06-27T13:43:34.624Z,0.97
2019-06-27T13:46:02.687Z,0.97
2019-06-27T13:48:30.734Z,0.57
2019-06-27T13:50:58.778Z,0.90
2019-06-27T13:53:26.926Z,1.00
2019-06-27T13:55:54.969Z,1.00
2019-06-27T13:58:23.023Z,0.87
2019-06-27T14:00:51.175Z,0.83
2019-06-27T14:03:19.346Z,0.90
2019-06-27T14:05:47.438Z,0.80
2019-06-27T14:08:15.970Z,0.80
2019-06-27T14:10:44.010Z,0.80
2019-06-27T14:13:12.048Z,0.90
2019-06-27T14:15:40.118Z,0.80
2019-06-27T14:18:08.156Z,1.00
2019-06-27T14:20:36.269Z,0.90
2019-06-27T14:23:04.398Z,0.83
2019-06-27T14:25:32.450Z,0.90
2019-06-27T14:28:00.499Z,0.90
2019-06-27T14:30:28.651Z,0.80
2019-06-27T14:32:56.699Z,1.00
2019-06-27T14:35:24.742Z,0.97
2019-06-27T14:37:52.890Z,0.93
2019-06-27T14:40:21.106Z,1.00
2019-06-27T14:42:49.150Z,1.00
2019-06-27T14:45:17.284Z,0.93
2019-06-27T14:47:45.330Z,1.10
2019-06-27T14:50:13.547Z,1.03
2019-06-27T14:52:41.679Z,1.00
2019-06-27T14:55:09.786Z,0.90
2019-06-27T14:57:37.976Z,0.90
2019-06-27T15:00:07.006Z,1.00
2019-06-27T15:02:35.046Z,1.07
2019-06-27T15:05:03.592Z,1.03
2019-06-27T15:07:31.654Z,0.80
2019-06-27T15:09:59.714Z,4.43
2019-06-27T15:12:28.582Z,1.03
2019-06-27T15:14:56.682Z,1.00
2019-06-27T15:17:24.761Z,1.10
2019-06-27T15:20:12.192Z,1.13
2019-06-27T15:22:40.251Z,1.70
2019-06-27T15:25:09.471Z,1.13
2019-06-27T15:27:37.549Z,1.17
2019-06-27T15:30:05.861Z,1.30
2019-06-27T15:32:33.909Z,1.30
2019-06-27T15:35:01.981Z,1.40
2019-06-27T15:37:30.090Z,3.03
2019-06-27T15:39:59.387Z,2.00
2019-06-27T15:42:27.430Z,1.30
2019-06-27T15:44:55.475Z,1.20
2019-06-27T15:47:23.521Z,1.40
2019-06-27T15:49:51.579Z,1.50
2019-06-27T15:52:19.622Z,1.00
2019-06-27T15:54:47.666Z,1.37
2019-06-27T15:57:15.747Z,1.27
2019-06-27T15:59:43.787Z,1.37
2019-06-27T16:02:11.843Z,1.20
2019-06-27T16:04:41.895Z,1.20
2019-06-27T16:07:09.931Z,1.30
2019-06-27T16:09:37.972Z,1.30
2019-06-27T16:12:06.334Z,2.17
2019-06-27T16:14:34.400Z,1.70
2019-06-27T16:17:02.760Z,4.67
2019-06-27T16:19:30.911Z,2.30
2019-06-27T16:21:58.954Z,1.80
2019-06-27T16:24:26.995Z,2.43
2019-06-27T16:26:55.046Z,1.97
2019-06-27T16:29:23.095Z,1.27
2019-06-27T16:31:51.158Z,1.40
2019-06-27T16:34:19.373Z,1.00
2019-06-27T16:36:47.413Z,1.23
2019-06-27T16:39:15.463Z,1.50
2019-06-27T16:41:45.130Z,1.40
2019-06-27T16:44:13.170Z,1.20
2019-06-27T16:46:41.226Z,1.30
2019-06-27T16:49:09.287Z,3.27
2019-06-27T16:51:37.335Z,1.77
2019-06-27T16:54:05.434Z,1.50
2019-06-27T16:56:33.507Z,1.50
2019-06-27T16:59:01.563Z,1.30
2019-06-27T17:01:29.601Z,1.23
2019-06-27T17:03:57.703Z,1.20
2019-06-27T17:06:40.916Z,1.30
2019-06-27T17:08:55.499Z,1.43
2019-06-27T17:11:23.555Z,1.20
2019-06-27T17:13:51.599Z,1.60
2019-06-27T17:16:22.232Z,1.03
2019-06-27T17:18:49.439Z,1.10
2019-06-27T17:21:17.472Z,1.00
2019-06-27T17:23:45.514Z,0.93
2019-06-27T17:26:15.999Z,1.37
2019-06-27T17:28:44.114Z,1.50
2019-06-27T17:31:12.203Z,1.00
2019-06-27T17:33:40.281Z,1.10
2019-06-27T17:36:08.523Z,1.23
2019-06-27T17:38:36.678Z,1.40
2019-06-27T17:41:04.742Z,1.77
2019-06-27T17:43:33.270Z,2.57
2019-06-27T17:46:01.348Z,1.50
2019-06-27T17:48:29.585Z,1.33
2019-06-27T17:50:58.329Z,1.37
2019-06-27T17:53:26.346Z,1.20
2019-06-27T17:55:54.475Z,1.00
2019-06-27T17:58:22.539Z,1.13
2019-06-27T18:00:50.576Z,1.47
2019-06-27T18:03:18.707Z,1.20
2019-06-27T18:05:46.749Z,0.80
2019-06-27T18:08:14.795Z,1.00
2019-06-27T18:10:42.889Z,1.03
2019-06-27T18:13:10.927Z,1.00
2019-06-27T18:15:38.963Z,2.03
2019-06-27T18:18:07.027Z,1.33
2019-06-27T18:20:35.072Z,1.27
2019-06-27T18:23:03.197Z,0.87
2019-06-27T18:25:31.307Z,1.33
2019-06-27T18:27:59.350Z,0.93
2019-06-27T18:30:27.393Z,1.03
2019-06-27T18:32:55.491Z,1.00
2019-06-27T18:35:23.538Z,1.00
2019-06-27T18:37:51.833Z,1.00
2019-06-27T18:40:19.884Z,0.93
2019-06-27T18:42:47.937Z,1.10
2019-06-27T18:45:16.234Z,0.80
2019-06-27T18:47:44.358Z,1.20
2019-06-27T18:50:12.577Z,1.53
2019-06-27T18:52:40.700Z,1.50
2019-06-27T18:55:08.898Z,0.93
2019-06-27T18:57:36.947Z,0.90
2019-06-27T19:00:06.483Z,0.93
2019-06-27T19:02:34.546Z,1.00
2019-06-27T19:05:05.307Z,1.20
2019-06-27T19:07:44.781Z,0.83
2019-06-27T19:10:05.990Z,1.13
2019-06-27T19:12:34.032Z,0.90
2019-06-27T19:15:02.076Z,0.90
2019-06-27T19:17:30.156Z,1.07
2019-06-27T19:20:02.935Z,0.90
2019-06-27T19:22:49.493Z,1.20
2019-06-27T19:25:19.210Z,1.00
2019-06-27T19:27:47.253Z,1.10
2019-06-27T19:30:15.370Z,1.03
2019-06-27T19:32:43.450Z,1.30
2019-06-27T19:35:11.558Z,1.10
2019-06-27T19:37:39.726Z,0.90
2019-06-27T19:40:07.939Z,0.90
2019-06-27T19:42:35.983Z,1.33
2019-06-27T19:45:05.241Z,1.00
2019-06-27T19:47:33.762Z,1.30
2019-06-27T19:50:01.881Z,0.80
2019-06-27T19:52:29.936Z,1.10
2019-06-27T19:54:57.983Z,0.90
2019-06-27T19:57:26.199Z,1.33
2019-06-27T19:59:54.662Z,1.43
2019-06-27T20:02:22.762Z,1.10
2019-06-27T20:04:50.874Z,0.93
2019-06-27T20:07:18.949Z,1.00
2019-06-27T20:09:46.980Z,1.17
2019-06-27T20:12:15.025Z,1.10
2019-06-27T20:14:43.078Z,1.13
2019-06-27T20:17:11.130Z,1.00
2019-06-27T20:19:39.168Z,1.30
2019-06-27T20:22:08.095Z,1.40
2019-06-27T20:24:36.182Z,1.07
2019-06-27T20:27:04.256Z,1.20
2019-06-27T20:29:37.382Z,1.10
2019-06-27T20:32:05.407Z,1.30
2019-06-27T20:34:33.454Z,1.20
2019-06-27T20:37:01.526Z,1.40
2019-06-27T20:39:29.591Z,1.20
2019-06-27T20:41:57.704Z,1.60
2019-06-27T20:44:25.889Z,1.90
2019-06-27T20:46:54.650Z,2.03
2019-06-27T20:49:23.538Z,1.67
2019-06-27T20:51:51.666Z,1.47
2019-06-27T20:54:19.720Z,1.20
2019-06-27T20:56:47.763Z,1.33
2019-06-27T20:59:15.820Z,1.47
2019-06-27T21:01:43.854Z,2.10
2019-06-27T21:04:11.906Z,2.60
2019-06-27T21:06:39.970Z,2.43
2019-06-27T21:09:08.014Z,1.53
2019-06-27T21:11:36.067Z,1.33
2019-06-27T21:14:04.126Z,1.40
2019-06-27T21:16:32.179Z,2.00
2019-06-27T21:19:00.234Z,1.60
2019-06-27T21:21:28.321Z,1.50
2019-06-27T21:23:56.363Z,1.40
2019-06-27T21:26:24.413Z,1.43
2019-06-27T21:28:53.043Z,1.43
2019-06-27T21:31:21.225Z,1.10
2019-06-27T21:33:49.297Z,1.40
2019-06-27T21:36:17.429Z,1.27
2019-06-27T21:38:45.490Z,0.97
2019-06-27T21:41:13.534Z,1.23
2019-06-27T21:43:41.591Z,1.40
2019-06-27T21:46:09.643Z,1.43
2019-06-27T21:48:37.690Z,1.30
2019-06-27T21:51:06.653Z,1.40
2019-06-27T21:53:34.702Z,1.47
2019-06-27T21:56:02.744Z,1.83
2019-06-27T21:58:30.807Z,1.30
2019-06-27T22:00:59.395Z,1.30
2019-06-27T22:03:27.453Z,1.13
2019-06-27T22:05:55.523Z,1.70
2019-06-27T22:08:23.604Z,1.40
2019-06-27T22:10:51.734Z,1.50
2019-06-27T22:13:19.877Z,1.40
2019-06-27T22:15:47.917Z,1.33
2019-06-27T22:18:15.959Z,1.60
2019-06-27T22:20:44.089Z,1.50
2019-06-27T22:23:12.131Z,1.50
2019-06-27T22:25:41.122Z,2.27
2019-06-27T22:28:09.343Z,1.40
2019-06-27T22:30:37.396Z,1.50
2019-06-27T22:33:05.531Z,1.70
2019-06-27T22:35:33.611Z,1.30
2019-06-27T22:38:19.743Z,1.80
2019-06-27T22:41:06.716Z,1.33
2019-06-27T22:43:52.751Z,1.40
2019-06-27T22:46:38.676Z,1.27
2019-06-27T22:49:06.136Z,1.40
2019-06-27T22:51:48.462Z,1.43
2019-06-27T22:54:18.146Z,1.40
2019-06-27T22:56:46.200Z,1.40
2019-06-27T22:59:14.259Z,1.67
2019-06-27T23:01:42.299Z,1.23
2019-06-27T23:04:10.344Z,1.33
2019-06-27T23:06:38.402Z,2.03
2019-06-27T23:09:07.215Z,1.57
2019-06-27T23:11:35.258Z,2.07
2019-06-27T23:14:03.416Z,1.50
2019-06-27T23:16:31.451Z,1.10
2019-06-27T23:18:59.493Z,1.90
2019-06-27T23:21:27.568Z,1.80
2019-06-27T23:23:55.596Z,1.47
2019-06-27T23:26:23.631Z,1.70
2019-06-27T23:28:51.692Z,1.50
2019-06-27T23:31:19.818Z,2.10
2019-06-27T23:33:47.915Z,1.73
2019-06-27T23:36:16.018Z,1.67
2019-06-27T23:38:44.070Z,1.97
2019-06-27T23:41:12.115Z,1.70
2019-06-27T23:43:40.314Z,1.60
2019-06-27T23:46:09.991Z,1.70
2019-06-27T23:48:38.042Z,1.77
2019-06-27T23:51:06.106Z,1.90
2019-06-27T23:53:36.107Z,2.00
2019-06-27T23:56:04.198Z,1.80
2019-06-27T23:58:33.065Z,2.20
